SAS4454 EKCH-ENTC
Flight info
| Callsign | SAS4454 |
|---|---|
| Flight time | 2h 11m |
| Altitude | 37000 |
| Route | VEDAR DCT PENNO DCT ATWEG |
| Aircraft | A320/M-SDE3FGHIRWY/LB1 |
Departure
| Time | 2026-05-07 20:11 |
|---|---|
| Airport | Copenhagen Kastrup Airport (EKCH) |
Arrival
| Time | 2026-05-07 22:22 |
|---|---|
| Airport | Tromsø Airport (ENTC) |
| Time | Latitude | Longitude | Altitude | Speed | Heading |
|---|---|---|---|---|---|
| 2026-05-07 19:51 | 55.62752 | 12.64591 | 26 ft | 0 kts | 282° |
| 2026-05-07 20:00 | 55.62750 | 12.64610 | 24 ft | 3 kts | 282° |
| 2026-05-07 20:00 | 55.62745 | 12.64645 | 25 ft | 3 kts | 282° |
| 2026-05-07 20:01 | 55.62741 | 12.64680 | 24 ft | 3 kts | 282° |
| 2026-05-07 20:01 | 55.62737 | 12.64715 | 25 ft | 3 kts | 282° |
| 2026-05-07 20:01 | 55.62734 | 12.64743 | 28 ft | 1 kts | 282° |
| 2026-05-07 20:01 | 55.62733 | 12.64746 | 28 ft | 0 kts | 282° |
| 2026-05-07 20:03 | 55.62733 | 12.64729 | 28 ft | 4 kts | 259° |
| 2026-05-07 20:03 | 55.62706 | 12.64692 | 25 ft | 6 kts | 208° |
| 2026-05-07 20:04 | 55.62659 | 12.64671 | 24 ft | 8 kts | 191° |
| 2026-05-07 20:04 | 55.62575 | 12.64654 | 25 ft | 16 kts | 182° |
| 2026-05-07 20:04 | 55.62474 | 12.64665 | 24 ft | 12 kts | 171° |
| 2026-05-07 20:04 | 55.62403 | 12.64735 | 24 ft | 12 kts | 130° |
| 2026-05-07 20:05 | 55.62355 | 12.64864 | 24 ft | 13 kts | 123° |
| 2026-05-07 20:05 | 55.62307 | 12.64995 | 24 ft | 12 kts | 122° |
| 2026-05-07 20:05 | 55.62268 | 12.65103 | 24 ft | 9 kts | 123° |
| 2026-05-07 20:05 | 55.62225 | 12.65173 | 24 ft | 9 kts | 167° |
| 2026-05-07 20:06 | 55.62171 | 12.65135 | 24 ft | 8 kts | 212° |
| 2026-05-07 20:06 | 55.62124 | 12.65078 | 26 ft | 8 kts | 213° |
| 2026-05-07 20:06 | 55.62052 | 12.64996 | 24 ft | 17 kts | 214° |
| 2026-05-07 20:06 | 55.61929 | 12.64855 | 24 ft | 26 kts | 213° |
| 2026-05-07 20:07 | 55.61753 | 12.64657 | 26 ft | 35 kts | 213° |
| 2026-05-07 20:07 | 55.61526 | 12.64392 | 24 ft | 43 kts | 212° |
| 2026-05-07 20:07 | 55.61266 | 12.64093 | 24 ft | 46 kts | 213° |
| 2026-05-07 20:07 | 55.61029 | 12.63820 | 24 ft | 35 kts | 212° |
| 2026-05-07 20:08 | 55.60836 | 12.63599 | 24 ft | 32 kts | 214° |
| 2026-05-07 20:08 | 55.60648 | 12.63378 | 24 ft | 31 kts | 219° |
| 2026-05-07 20:08 | 55.60541 | 12.63225 | 26 ft | 18 kts | 203° |
| 2026-05-07 20:08 | 55.60450 | 12.63315 | 24 ft | 12 kts | 123° |
| 2026-05-07 20:09 | 55.60421 | 12.63452 | 24 ft | 13 kts | 74° |
| 2026-05-07 20:09 | 55.60474 | 12.63553 | 26 ft | 0 kts | 41° |
| 2026-05-07 20:10 | 55.60474 | 12.63554 | 26 ft | 1 kts | 41° |
| 2026-05-07 20:10 | 55.60551 | 12.63673 | 24 ft | 50 kts | 41° |
| 2026-05-07 20:11 | 55.61035 | 12.64423 | 24 ft | 133 kts | 41° |
| 2026-05-07 20:11 | 55.61886 | 12.65722 | 266 ft | 174 kts | 40° |
| 2026-05-07 20:11 | 55.62831 | 12.67127 | 989 ft | 182 kts | 38° |
| 2026-05-07 20:11 | 55.63822 | 12.68611 | 1535 ft | 196 kts | 40° |
| 2026-05-07 20:12 | 55.64916 | 12.70294 | 1907 ft | 220 kts | 36° |
| 2026-05-07 20:12 | 55.66383 | 12.71386 | 2315 ft | 242 kts | 9° |
| 2026-05-07 20:12 | 55.68087 | 12.71815 | 3100 ft | 251 kts | 6° |
| 2026-05-07 20:12 | 55.69832 | 12.72167 | 4058 ft | 254 kts | 6° |
| 2026-05-07 20:13 | 55.71604 | 12.72500 | 5000 ft | 258 kts | 5° |
| 2026-05-07 20:13 | 55.73405 | 12.72280 | 5862 ft | 263 kts | 348° |
| 2026-05-07 20:13 | 55.75175 | 12.71514 | 6743 ft | 267 kts | 346° |
| 2026-05-07 20:13 | 55.76992 | 12.70664 | 7563 ft | 272 kts | 345° |
| 2026-05-07 20:14 | 55.78835 | 12.69773 | 8377 ft | 277 kts | 345° |
| 2026-05-07 20:14 | 55.80711 | 12.68852 | 9197 ft | 282 kts | 346° |
| 2026-05-07 20:14 | 55.82616 | 12.67898 | 10005 ft | 287 kts | 345° |
| 2026-05-07 20:14 | 55.84573 | 12.66899 | 10467 ft | 303 kts | 344° |
| 2026-05-07 20:15 | 55.86514 | 12.65111 | 10653 ft | 329 kts | 321° |
| 2026-05-07 20:15 | 55.88058 | 12.61967 | 11001 ft | 345 kts | 306° |
| 2026-05-07 20:15 | 55.89450 | 12.58455 | 11670 ft | 349 kts | 305° |
| 2026-05-07 20:15 | 55.90847 | 12.54897 | 12380 ft | 352 kts | 305° |
| 2026-05-07 20:16 | 55.92255 | 12.51317 | 13098 ft | 354 kts | 306° |
| 2026-05-07 20:16 | 55.93962 | 12.48156 | 13778 ft | 357 kts | 324° |
| 2026-05-07 20:16 | 55.96169 | 12.46136 | 14416 ft | 359 kts | 340° |
| 2026-05-07 20:16 | 55.98548 | 12.44721 | 15037 ft | 362 kts | 341° |
| 2026-05-07 20:17 | 56.00948 | 12.43320 | 15644 ft | 364 kts | 341° |
| 2026-05-07 20:17 | 56.03370 | 12.41918 | 16247 ft | 367 kts | 341° |
| 2026-05-07 20:17 | 56.05813 | 12.40501 | 16849 ft | 370 kts | 341° |
| 2026-05-07 20:17 | 56.08305 | 12.39052 | 17457 ft | 373 kts | 341° |
| 2026-05-07 20:18 | 56.10786 | 12.37602 | 18065 ft | 376 kts | 341° |
| 2026-05-07 20:18 | 56.13284 | 12.36131 | 18639 ft | 379 kts | 341° |
| 2026-05-07 20:18 | 56.15799 | 12.34645 | 19157 ft | 382 kts | 341° |
| 2026-05-07 20:18 | 56.18332 | 12.33143 | 19682 ft | 385 kts | 341° |
| 2026-05-07 20:19 | 56.20885 | 12.31627 | 20206 ft | 388 kts | 341° |
| 2026-05-07 20:19 | 56.23459 | 12.30101 | 20735 ft | 391 kts | 341° |
| 2026-05-07 20:19 | 56.26046 | 12.28568 | 21252 ft | 393 kts | 341° |
| 2026-05-07 20:19 | 56.28654 | 12.27022 | 21747 ft | 396 kts | 341° |
| 2026-05-07 20:20 | 56.31281 | 12.25460 | 22231 ft | 399 kts | 341° |
| 2026-05-07 20:20 | 56.33924 | 12.23885 | 22697 ft | 401 kts | 341° |
| 2026-05-07 20:20 | 56.36549 | 12.22316 | 23144 ft | 404 kts | 341° |
| 2026-05-07 20:20 | 56.39228 | 12.20721 | 23595 ft | 407 kts | 341° |
| 2026-05-07 20:21 | 56.41926 | 12.19119 | 23965 ft | 410 kts | 341° |
| 2026-05-07 20:21 | 56.44645 | 12.17497 | 24355 ft | 412 kts | 341° |
| 2026-05-07 20:21 | 56.47371 | 12.15861 | 24724 ft | 414 kts | 341° |
| 2026-05-07 20:21 | 56.50120 | 12.14242 | 25094 ft | 417 kts | 344° |
| 2026-05-07 20:22 | 56.52970 | 12.13230 | 25457 ft | 419 kts | 353° |
| 2026-05-07 20:22 | 56.55887 | 12.13085 | 25839 ft | 421 kts | 3° |
| 2026-05-07 20:22 | 56.58807 | 12.13697 | 26208 ft | 424 kts | 7° |
| 2026-05-07 20:22 | 56.61737 | 12.14407 | 26573 ft | 426 kts | 7° |
| 2026-05-07 20:23 | 56.64684 | 12.15112 | 26932 ft | 428 kts | 7° |
| 2026-05-07 20:23 | 56.67645 | 12.15816 | 27284 ft | 430 kts | 7° |
| 2026-05-07 20:23 | 56.70621 | 12.16529 | 27631 ft | 433 kts | 7° |
| 2026-05-07 20:23 | 56.73615 | 12.17253 | 27972 ft | 435 kts | 7° |
| 2026-05-07 20:24 | 56.76621 | 12.17986 | 28314 ft | 437 kts | 7° |
| 2026-05-07 20:24 | 56.79642 | 12.18723 | 28644 ft | 439 kts | 6° |
| 2026-05-07 20:24 | 56.82678 | 12.19455 | 28961 ft | 441 kts | 6° |
| 2026-05-07 20:24 | 56.85731 | 12.20188 | 29273 ft | 443 kts | 6° |
| 2026-05-07 20:25 | 56.88797 | 12.20927 | 29585 ft | 446 kts | 6° |
| 2026-05-07 20:25 | 56.91877 | 12.21672 | 29884 ft | 448 kts | 6° |
| 2026-05-07 20:25 | 56.94973 | 12.22428 | 30181 ft | 450 kts | 6° |
| 2026-05-07 20:25 | 56.98083 | 12.23187 | 30437 ft | 452 kts | 6° |
| 2026-05-07 20:26 | 57.01202 | 12.23948 | 30718 ft | 452 kts | 6° |
| 2026-05-07 20:26 | 57.04317 | 12.24709 | 31098 ft | 451 kts | 6° |
| 2026-05-07 20:26 | 57.07420 | 12.25473 | 31485 ft | 449 kts | 6° |
| 2026-05-07 20:26 | 57.10518 | 12.26237 | 31860 ft | 448 kts | 6° |
| 2026-05-07 20:27 | 57.13601 | 12.26994 | 32235 ft | 447 kts | 6° |
| 2026-05-07 20:27 | 57.16679 | 12.27751 | 32613 ft | 446 kts | 6° |
| 2026-05-07 20:27 | 57.19750 | 12.28508 | 32987 ft | 445 kts | 6° |
| 2026-05-07 20:27 | 57.22812 | 12.29264 | 33361 ft | 444 kts | 6° |
| 2026-05-07 20:28 | 57.25869 | 12.30018 | 33746 ft | 442 kts | 6° |
| 2026-05-07 20:28 | 57.28913 | 12.30770 | 34126 ft | 441 kts | 6° |
| 2026-05-07 20:28 | 57.31954 | 12.31525 | 34444 ft | 440 kts | 6° |
| 2026-05-07 20:28 | 57.34993 | 12.32280 | 34735 ft | 441 kts | 6° |
| 2026-05-07 20:29 | 57.38034 | 12.33038 | 35006 ft | 441 kts | 6° |
| 2026-05-07 20:29 | 57.41079 | 12.33798 | 35264 ft | 442 kts | 6° |
| 2026-05-07 20:29 | 57.44131 | 12.34561 | 35512 ft | 443 kts | 6° |
| 2026-05-07 20:29 | 57.47184 | 12.35324 | 35760 ft | 443 kts | 6° |
| 2026-05-07 20:30 | 57.50247 | 12.36090 | 35998 ft | 444 kts | 6° |
| 2026-05-07 20:30 | 57.53313 | 12.36859 | 36138 ft | 445 kts | 6° |
| 2026-05-07 20:30 | 57.56380 | 12.37630 | 36168 ft | 445 kts | 6° |
| 2026-05-07 20:31 | 57.62513 | 12.39187 | 36163 ft | 445 kts | 5° |
| 2026-05-07 20:31 | 57.68648 | 12.40750 | 36166 ft | 445 kts | 5° |
| 2026-05-07 20:32 | 57.74794 | 12.42298 | 36165 ft | 445 kts | 5° |
| 2026-05-07 20:32 | 57.80936 | 12.43854 | 36165 ft | 446 kts | 5° |
| 2026-05-07 20:33 | 57.87077 | 12.45428 | 36181 ft | 446 kts | 5° |
| 2026-05-07 20:33 | 57.93226 | 12.47019 | 36166 ft | 446 kts | 5° |
| 2026-05-07 20:34 | 57.99369 | 12.48604 | 36164 ft | 446 kts | 5° |
| 2026-05-07 20:34 | 58.05521 | 12.50198 | 36164 ft | 446 kts | 5° |
| 2026-05-07 20:35 | 58.11668 | 12.51794 | 36163 ft | 446 kts | 5° |
| 2026-05-07 20:35 | 58.17822 | 12.53400 | 36165 ft | 446 kts | 5° |
| 2026-05-07 20:36 | 58.23973 | 12.54991 | 36165 ft | 446 kts | 5° |
| 2026-05-07 20:36 | 58.30122 | 12.56582 | 36166 ft | 446 kts | 5° |
| 2026-05-07 20:37 | 58.36274 | 12.58201 | 36166 ft | 446 kts | 5° |
| 2026-05-07 20:37 | 58.42381 | 12.59821 | 36177 ft | 446 kts | 4° |
| 2026-05-07 20:38 | 58.48536 | 12.61453 | 36166 ft | 447 kts | 4° |
| 2026-05-07 20:38 | 58.54692 | 12.63083 | 36165 ft | 447 kts | 4° |
| 2026-05-07 20:39 | 58.60849 | 12.64736 | 36167 ft | 447 kts | 4° |
| 2026-05-07 20:39 | 58.67005 | 12.66387 | 36163 ft | 447 kts | 4° |
| 2026-05-07 20:40 | 58.73163 | 12.68042 | 36160 ft | 447 kts | 4° |
| 2026-05-07 20:40 | 58.79320 | 12.69706 | 36163 ft | 447 kts | 4° |
| 2026-05-07 20:41 | 58.85477 | 12.71372 | 36161 ft | 447 kts | 4° |
| 2026-05-07 20:41 | 58.91641 | 12.73037 | 36162 ft | 447 kts | 4° |
| 2026-05-07 20:42 | 58.97803 | 12.74716 | 36197 ft | 447 kts | 3° |
| 2026-05-07 20:42 | 59.03963 | 12.76405 | 36165 ft | 447 kts | 3° |
| 2026-05-07 20:43 | 59.10123 | 12.78101 | 36159 ft | 447 kts | 3° |
| 2026-05-07 20:43 | 59.16282 | 12.79799 | 36160 ft | 447 kts | 3° |
| 2026-05-07 20:44 | 59.22440 | 12.81500 | 36160 ft | 447 kts | 3° |
| 2026-05-07 20:44 | 59.28600 | 12.83202 | 36156 ft | 447 kts | 2° |
| 2026-05-07 20:45 | 59.34757 | 12.84906 | 36160 ft | 447 kts | 3° |
| 2026-05-07 20:45 | 59.40869 | 12.86620 | 36160 ft | 447 kts | 3° |
| 2026-05-07 20:46 | 59.46027 | 12.88069 | 36157 ft | 447 kts | 3° |
| 2026-05-07 20:46 | 59.53180 | 12.90084 | 36160 ft | 447 kts | 3° |
| 2026-05-07 20:47 | 59.59332 | 12.91827 | 36156 ft | 447 kts | 2° |
| 2026-05-07 20:47 | 59.64491 | 12.93287 | 36157 ft | 447 kts | 2° |
| 2026-05-07 20:48 | 59.70641 | 12.95040 | 36162 ft | 447 kts | 2° |
| 2026-05-07 20:48 | 59.76796 | 12.96810 | 36160 ft | 447 kts | 2° |
| 2026-05-07 20:49 | 59.82950 | 12.98569 | 36195 ft | 447 kts | 2° |
| 2026-05-07 20:49 | 59.89106 | 13.00333 | 36162 ft | 447 kts | 2° |
| 2026-05-07 20:50 | 59.95254 | 13.02108 | 36161 ft | 447 kts | 2° |
| 2026-05-07 20:50 | 60.01404 | 13.03885 | 36165 ft | 447 kts | 2° |
| 2026-05-07 20:51 | 60.07554 | 13.05674 | 36166 ft | 447 kts | 2° |
| 2026-05-07 20:51 | 60.13706 | 13.07474 | 36161 ft | 446 kts | 1° |
| 2026-05-07 20:52 | 60.19852 | 13.09283 | 36169 ft | 447 kts | 1° |
| 2026-05-07 20:52 | 60.26002 | 13.11093 | 36154 ft | 446 kts | 1° |
| 2026-05-07 20:53 | 60.32148 | 13.12900 | 36171 ft | 446 kts | 1° |
| 2026-05-07 20:53 | 60.38253 | 13.14719 | 36175 ft | 447 kts | 1° |
| 2026-05-07 20:54 | 60.44445 | 13.16565 | 36171 ft | 447 kts | 1° |
| 2026-05-07 20:54 | 60.50575 | 13.18383 | 36178 ft | 449 kts | 1° |
| 2026-05-07 20:55 | 60.56749 | 13.20228 | 36182 ft | 449 kts | 1° |
| 2026-05-07 20:55 | 60.62931 | 13.22103 | 36182 ft | 449 kts | 1° |
| 2026-05-07 20:56 | 60.69109 | 13.23978 | 36232 ft | 449 kts | 1° |
| 2026-05-07 20:56 | 60.75281 | 13.25864 | 36187 ft | 448 kts | 1° |
| 2026-05-07 20:57 | 60.81451 | 13.27742 | 36186 ft | 448 kts | 1° |
| 2026-05-07 20:57 | 60.87628 | 13.29628 | 36187 ft | 448 kts | 1° |
| 2026-05-07 20:58 | 60.93798 | 13.31507 | 36190 ft | 448 kts | 1° |
| 2026-05-07 20:58 | 60.99973 | 13.33407 | 36191 ft | 449 kts | 1° |
| 2026-05-07 20:59 | 61.06146 | 13.35322 | 36189 ft | 449 kts | 1° |
| 2026-05-07 20:59 | 61.12317 | 13.37238 | 36191 ft | 449 kts | 1° |
| 2026-05-07 21:00 | 61.18493 | 13.39170 | 36192 ft | 449 kts | 1° |
| 2026-05-07 21:00 | 61.24664 | 13.41106 | 36196 ft | 449 kts | 1° |
| 2026-05-07 21:01 | 61.30842 | 13.43035 | 36196 ft | 449 kts | 1° |
| 2026-05-07 21:01 | 61.37018 | 13.44981 | 36195 ft | 449 kts | 1° |
| 2026-05-07 21:02 | 61.43193 | 13.46943 | 36199 ft | 449 kts | 1° |
| 2026-05-07 21:02 | 61.49370 | 13.48923 | 36198 ft | 449 kts | 1° |
| 2026-05-07 21:03 | 61.55549 | 13.50908 | 36201 ft | 449 kts | 1° |
| 2026-05-07 21:03 | 61.61732 | 13.52876 | 36204 ft | 450 kts | 1° |
| 2026-05-07 21:04 | 61.67924 | 13.54857 | 36201 ft | 450 kts | 1° |
| 2026-05-07 21:04 | 61.74119 | 13.56854 | 36206 ft | 450 kts | 1° |
| 2026-05-07 21:05 | 61.80311 | 13.58880 | 36209 ft | 450 kts | 1° |
| 2026-05-07 21:05 | 61.86501 | 13.60900 | 36233 ft | 451 kts | 1° |
| 2026-05-07 21:06 | 61.92713 | 13.62928 | 36209 ft | 452 kts | 1° |
| 2026-05-07 21:06 | 61.98933 | 13.64970 | 36204 ft | 452 kts | 2° |
| 2026-05-07 21:07 | 62.05106 | 13.67018 | 36205 ft | 452 kts | 1° |
| 2026-05-07 21:07 | 62.11325 | 13.69084 | 36205 ft | 452 kts | 2° |
| 2026-05-07 21:08 | 62.17548 | 13.71162 | 36207 ft | 453 kts | 2° |
| 2026-05-07 21:08 | 62.23790 | 13.73236 | 36208 ft | 454 kts | 2° |
| 2026-05-07 21:09 | 62.30035 | 13.75324 | 36207 ft | 454 kts | 2° |
| 2026-05-07 21:09 | 62.36282 | 13.77436 | 36210 ft | 454 kts | 2° |
| 2026-05-07 21:10 | 62.42527 | 13.79564 | 36212 ft | 454 kts | 2° |
| 2026-05-07 21:10 | 62.48777 | 13.81695 | 36214 ft | 455 kts | 2° |
| 2026-05-07 21:11 | 62.55032 | 13.83826 | 36221 ft | 455 kts | 2° |
| 2026-05-07 21:11 | 62.64430 | 13.87038 | 36220 ft | 455 kts | 2° |
| 2026-05-07 21:12 | 62.70688 | 13.89200 | 36229 ft | 455 kts | 2° |
| 2026-05-07 21:12 | 62.76948 | 13.91371 | 36237 ft | 455 kts | 2° |
| 2026-05-07 21:13 | 62.83200 | 13.93539 | 36228 ft | 455 kts | 2° |
| 2026-05-07 21:13 | 62.89456 | 13.95725 | 36228 ft | 455 kts | 2° |
| 2026-05-07 21:14 | 62.95706 | 13.97928 | 36234 ft | 455 kts | 2° |
| 2026-05-07 21:14 | 63.01961 | 14.00142 | 36234 ft | 455 kts | 2° |
| 2026-05-07 21:15 | 63.08217 | 14.02352 | 36228 ft | 454 kts | 3° |
| 2026-05-07 21:15 | 63.14456 | 14.04566 | 36234 ft | 454 kts | 3° |
| 2026-05-07 21:16 | 63.20697 | 14.06807 | 36189 ft | 454 kts | 3° |
| 2026-05-07 21:16 | 63.26936 | 14.09040 | 36195 ft | 454 kts | 3° |
| 2026-05-07 21:17 | 63.33177 | 14.11280 | 36236 ft | 454 kts | 3° |
| 2026-05-07 21:17 | 63.39418 | 14.13537 | 36232 ft | 454 kts | 3° |
| 2026-05-07 21:18 | 63.45657 | 14.15808 | 36234 ft | 454 kts | 3° |
| 2026-05-07 21:18 | 63.51896 | 14.18092 | 36234 ft | 454 kts | 3° |
| 2026-05-07 21:19 | 63.58093 | 14.20354 | 36233 ft | 454 kts | 3° |
| 2026-05-07 21:19 | 63.64332 | 14.22648 | 36234 ft | 454 kts | 3° |
| 2026-05-07 21:20 | 63.70584 | 14.24974 | 36229 ft | 456 kts | 4° |
| 2026-05-07 21:20 | 63.76850 | 14.27307 | 36231 ft | 457 kts | 4° |
| 2026-05-07 21:21 | 63.83120 | 14.29649 | 36230 ft | 457 kts | 4° |
| 2026-05-07 21:21 | 63.89390 | 14.31997 | 36231 ft | 457 kts | 4° |
| 2026-05-07 21:22 | 63.95657 | 14.34354 | 36228 ft | 457 kts | 4° |
| 2026-05-07 21:22 | 64.01927 | 14.36731 | 36228 ft | 457 kts | 4° |
| 2026-05-07 21:23 | 64.08195 | 14.39109 | 36225 ft | 457 kts | 4° |
| 2026-05-07 21:23 | 64.14467 | 14.41495 | 36225 ft | 457 kts | 4° |
| 2026-05-07 21:24 | 64.20737 | 14.43904 | 36228 ft | 457 kts | 4° |
| 2026-05-07 21:24 | 64.27012 | 14.46326 | 36259 ft | 457 kts | 4° |
| 2026-05-07 21:25 | 64.33298 | 14.48758 | 36223 ft | 458 kts | 4° |
| 2026-05-07 21:25 | 64.39584 | 14.51197 | 36220 ft | 458 kts | 4° |
| 2026-05-07 21:26 | 64.45875 | 14.53666 | 36220 ft | 458 kts | 4° |
| 2026-05-07 21:26 | 64.52160 | 14.56147 | 36214 ft | 458 kts | 4° |
| 2026-05-07 21:27 | 64.58442 | 14.58614 | 36251 ft | 458 kts | 4° |
| 2026-05-07 21:27 | 64.64742 | 14.61107 | 36213 ft | 459 kts | 4° |
| 2026-05-07 21:28 | 64.71003 | 14.63603 | 36213 ft | 460 kts | 4° |
| 2026-05-07 21:28 | 64.77309 | 14.66122 | 36209 ft | 460 kts | 4° |
| 2026-05-07 21:29 | 64.83619 | 14.68657 | 36209 ft | 460 kts | 4° |
| 2026-05-07 21:29 | 64.89923 | 14.71211 | 36230 ft | 460 kts | 5° |
| 2026-05-07 21:30 | 64.96229 | 14.73770 | 36207 ft | 460 kts | 5° |
| 2026-05-07 21:30 | 65.02539 | 14.76342 | 36201 ft | 460 kts | 5° |
| 2026-05-07 21:31 | 65.08850 | 14.78919 | 36203 ft | 460 kts | 5° |
| 2026-05-07 21:31 | 65.14137 | 14.81096 | 36197 ft | 460 kts | 5° |
| 2026-05-07 21:32 | 65.20447 | 14.83720 | 36230 ft | 461 kts | 5° |
| 2026-05-07 21:32 | 65.26774 | 14.86356 | 36195 ft | 461 kts | 5° |
| 2026-05-07 21:33 | 65.33103 | 14.88992 | 36198 ft | 462 kts | 5° |
| 2026-05-07 21:33 | 65.39432 | 14.91646 | 36189 ft | 462 kts | 5° |
| 2026-05-07 21:34 | 65.45765 | 14.94310 | 36190 ft | 462 kts | 5° |
| 2026-05-07 21:34 | 65.52095 | 14.96968 | 36217 ft | 462 kts | 5° |
| 2026-05-07 21:35 | 65.58434 | 14.99659 | 36189 ft | 463 kts | 6° |
| 2026-05-07 21:35 | 65.64779 | 15.02387 | 36150 ft | 463 kts | 6° |
| 2026-05-07 21:36 | 65.71122 | 15.05132 | 36137 ft | 463 kts | 6° |
| 2026-05-07 21:36 | 65.77467 | 15.07875 | 36136 ft | 463 kts | 6° |
| 2026-05-07 21:37 | 65.83811 | 15.10620 | 36177 ft | 463 kts | 6° |
| 2026-05-07 21:37 | 65.90162 | 15.13373 | 36140 ft | 464 kts | 6° |
| 2026-05-07 21:38 | 65.96514 | 15.16163 | 36153 ft | 464 kts | 6° |
| 2026-05-07 21:38 | 66.02865 | 15.18967 | 36165 ft | 464 kts | 6° |
| 2026-05-07 21:39 | 66.09216 | 15.21795 | 36177 ft | 464 kts | 6° |
| 2026-05-07 21:39 | 66.15524 | 15.24605 | 36211 ft | 464 kts | 6° |
| 2026-05-07 21:40 | 66.21881 | 15.27448 | 36191 ft | 465 kts | 6° |
| 2026-05-07 21:40 | 66.28245 | 15.30313 | 36190 ft | 465 kts | 6° |
| 2026-05-07 21:41 | 66.34612 | 15.33187 | 36190 ft | 465 kts | 7° |
| 2026-05-07 21:41 | 66.40974 | 15.36080 | 36185 ft | 465 kts | 7° |
| 2026-05-07 21:42 | 66.47340 | 15.38994 | 36205 ft | 465 kts | 7° |
| 2026-05-07 21:42 | 66.53710 | 15.41918 | 36179 ft | 465 kts | 7° |
| 2026-05-07 21:43 | 66.60084 | 15.44864 | 36179 ft | 466 kts | 7° |
| 2026-05-07 21:43 | 66.66456 | 15.47816 | 36179 ft | 466 kts | 7° |
| 2026-05-07 21:44 | 66.72832 | 15.50784 | 36180 ft | 466 kts | 7° |
| 2026-05-07 21:44 | 66.79203 | 15.53762 | 36196 ft | 466 kts | 7° |
| 2026-05-07 21:45 | 66.85586 | 15.56773 | 36177 ft | 466 kts | 7° |
| 2026-05-07 21:45 | 66.91967 | 15.59804 | 36169 ft | 466 kts | 7° |
| 2026-05-07 21:46 | 66.98354 | 15.62854 | 35887 ft | 464 kts | 7° |
| 2026-05-07 21:46 | 67.01499 | 15.64365 | 36082 ft | 459 kts | 7° |
| 2026-05-07 21:46 | 67.04644 | 15.65875 | 36176 ft | 462 kts | 7° |
| 2026-05-07 21:47 | 67.10958 | 15.68903 | 36168 ft | 466 kts | 7° |
| 2026-05-07 21:47 | 67.17331 | 15.71989 | 36169 ft | 466 kts | 7° |
| 2026-05-07 21:48 | 67.23713 | 15.75099 | 36168 ft | 466 kts | 8° |
| 2026-05-07 21:48 | 67.30086 | 15.78230 | 36167 ft | 466 kts | 8° |
| 2026-05-07 21:49 | 67.36464 | 15.81371 | 36172 ft | 467 kts | 8° |
| 2026-05-07 21:49 | 67.42844 | 15.84528 | 36181 ft | 467 kts | 8° |
| 2026-05-07 21:50 | 67.49222 | 15.87686 | 36165 ft | 467 kts | 8° |
| 2026-05-07 21:50 | 67.55603 | 15.90874 | 36163 ft | 467 kts | 8° |
| 2026-05-07 21:51 | 67.61984 | 15.94093 | 36164 ft | 467 kts | 8° |
| 2026-05-07 21:51 | 67.68366 | 15.97336 | 36163 ft | 467 kts | 8° |
| 2026-05-07 21:52 | 67.74748 | 16.00577 | 36184 ft | 467 kts | 8° |
| 2026-05-07 21:52 | 67.81132 | 16.03825 | 36158 ft | 467 kts | 8° |
| 2026-05-07 21:53 | 67.87468 | 16.07087 | 36160 ft | 467 kts | 8° |
| 2026-05-07 21:53 | 67.93792 | 16.11128 | 36160 ft | 470 kts | 19° |
| 2026-05-07 21:54 | 67.99649 | 16.18994 | 36155 ft | 473 kts | 26° |
| 2026-05-07 21:54 | 68.05421 | 16.27448 | 36156 ft | 473 kts | 26° |
| 2026-05-07 21:55 | 68.11188 | 16.35920 | 36154 ft | 473 kts | 27° |
| 2026-05-07 21:55 | 68.16956 | 16.44424 | 36153 ft | 473 kts | 27° |
| 2026-05-07 21:56 | 68.22716 | 16.52973 | 36147 ft | 473 kts | 27° |
| 2026-05-07 21:56 | 68.28464 | 16.61579 | 36145 ft | 473 kts | 27° |
| 2026-05-07 21:57 | 68.34214 | 16.70227 | 36141 ft | 473 kts | 27° |
| 2026-05-07 21:57 | 68.39962 | 16.78904 | 36137 ft | 472 kts | 27° |
| 2026-05-07 21:58 | 68.45693 | 16.87626 | 36146 ft | 472 kts | 27° |
| 2026-05-07 21:58 | 68.51419 | 16.96392 | 36141 ft | 472 kts | 27° |
| 2026-05-07 21:59 | 68.57141 | 17.05189 | 36026 ft | 470 kts | 28° |
| 2026-05-07 21:59 | 68.59978 | 17.09581 | 35398 ft | 467 kts | 28° |
| 2026-05-07 21:59 | 68.62804 | 17.13972 | 34471 ft | 467 kts | 28° |
| 2026-05-07 22:00 | 68.65627 | 17.18373 | 33396 ft | 467 kts | 28° |
| 2026-05-07 22:00 | 68.68447 | 17.22780 | 32252 ft | 466 kts | 28° |
| 2026-05-07 22:00 | 68.71257 | 17.27181 | 31125 ft | 464 kts | 29° |
| 2026-05-07 22:00 | 68.74057 | 17.31573 | 29909 ft | 462 kts | 29° |
| 2026-05-07 22:01 | 68.76848 | 17.35957 | 28393 ft | 462 kts | 29° |
| 2026-05-07 22:01 | 68.79636 | 17.40349 | 26814 ft | 461 kts | 30° |
| 2026-05-07 22:01 | 68.82424 | 17.44751 | 25164 ft | 463 kts | 30° |
| 2026-05-07 22:01 | 68.85223 | 17.49179 | 23571 ft | 463 kts | 30° |
| 2026-05-07 22:02 | 68.87985 | 17.53566 | 22167 ft | 452 kts | 30° |
| 2026-05-07 22:02 | 68.90686 | 17.57876 | 20795 ft | 444 kts | 30° |
| 2026-05-07 22:02 | 68.93345 | 17.62138 | 19758 ft | 441 kts | 29° |
| 2026-05-07 22:02 | 68.96002 | 17.66415 | 19375 ft | 440 kts | 29° |
| 2026-05-07 22:03 | 68.98640 | 17.70679 | 19164 ft | 438 kts | 29° |
| 2026-05-07 22:03 | 69.01275 | 17.74949 | 19121 ft | 437 kts | 29° |
| 2026-05-07 22:03 | 69.03921 | 17.79137 | 19119 ft | 437 kts | 26° |
| 2026-05-07 22:03 | 69.06707 | 17.82483 | 19133 ft | 436 kts | 18° |
| 2026-05-07 22:04 | 69.09621 | 17.84757 | 19132 ft | 435 kts | 10° |
| 2026-05-07 22:04 | 69.12559 | 17.86169 | 19130 ft | 434 kts | 8° |
| 2026-05-07 22:04 | 69.15539 | 17.87545 | 19128 ft | 434 kts | 8° |
| 2026-05-07 22:04 | 69.18522 | 17.88927 | 19130 ft | 434 kts | 8° |
| 2026-05-07 22:05 | 69.21503 | 17.90312 | 19131 ft | 434 kts | 8° |
| 2026-05-07 22:05 | 69.24483 | 17.91704 | 19131 ft | 434 kts | 8° |
| 2026-05-07 22:05 | 69.27463 | 17.93104 | 19085 ft | 431 kts | 8° |
| 2026-05-07 22:05 | 69.30392 | 17.94489 | 18349 ft | 424 kts | 8° |
| 2026-05-07 22:06 | 69.33324 | 17.95882 | 17409 ft | 419 kts | 8° |
| 2026-05-07 22:06 | 69.36185 | 17.97246 | 16501 ft | 414 kts | 8° |
| 2026-05-07 22:06 | 69.38967 | 17.99240 | 15636 ft | 411 kts | 16° |
| 2026-05-07 22:06 | 69.41574 | 18.02235 | 14821 ft | 408 kts | 24° |
| 2026-05-07 22:07 | 69.44105 | 18.05797 | 14041 ft | 404 kts | 25° |
| 2026-05-07 22:07 | 69.46616 | 18.09334 | 13230 ft | 400 kts | 25° |
| 2026-05-07 22:07 | 69.49098 | 18.12837 | 12430 ft | 396 kts | 25° |
| 2026-05-07 22:07 | 69.51549 | 18.16310 | 11637 ft | 391 kts | 25° |
| 2026-05-07 22:08 | 69.53970 | 18.19745 | 10846 ft | 386 kts | 25° |
| 2026-05-07 22:08 | 69.56364 | 18.23144 | 10067 ft | 382 kts | 25° |
| 2026-05-07 22:08 | 69.58692 | 18.26459 | 9816 ft | 362 kts | 25° |
| 2026-05-07 22:08 | 69.60853 | 18.29545 | 9651 ft | 332 kts | 25° |
| 2026-05-07 22:09 | 69.62840 | 18.32385 | 9509 ft | 306 kts | 25° |
| 2026-05-07 22:09 | 69.64679 | 18.35020 | 9328 ft | 287 kts | 25° |
| 2026-05-07 22:09 | 69.66436 | 18.37544 | 8880 ft | 279 kts | 25° |
| 2026-05-07 22:09 | 69.68161 | 18.40028 | 8328 ft | 276 kts | 25° |
| 2026-05-07 22:10 | 69.69873 | 18.42490 | 8117 ft | 275 kts | 25° |
| 2026-05-07 22:10 | 69.71578 | 18.44940 | 7765 ft | 273 kts | 25° |
| 2026-05-07 22:10 | 69.73271 | 18.47379 | 7611 ft | 273 kts | 25° |
| 2026-05-07 22:10 | 69.74974 | 18.49832 | 7627 ft | 275 kts | 25° |
| 2026-05-07 22:11 | 69.76683 | 18.52303 | 7642 ft | 275 kts | 25° |
| 2026-05-07 22:11 | 69.78394 | 18.54788 | 7634 ft | 275 kts | 25° |
| 2026-05-07 22:11 | 69.80099 | 18.57275 | 7632 ft | 275 kts | 25° |
| 2026-05-07 22:11 | 69.81804 | 18.59766 | 7459 ft | 273 kts | 25° |
| 2026-05-07 22:12 | 69.83494 | 18.62241 | 7112 ft | 272 kts | 26° |
| 2026-05-07 22:12 | 69.85180 | 18.64717 | 6777 ft | 271 kts | 26° |
| 2026-05-07 22:12 | 69.86855 | 18.67177 | 6527 ft | 266 kts | 26° |
| 2026-05-07 22:12 | 69.88456 | 18.69536 | 6380 ft | 250 kts | 26° |
| 2026-05-07 22:13 | 69.89952 | 18.71745 | 6234 ft | 233 kts | 26° |
| 2026-05-07 22:13 | 69.91352 | 18.73808 | 6062 ft | 219 kts | 26° |
| 2026-05-07 22:13 | 69.92694 | 18.75787 | 5694 ft | 215 kts | 26° |
| 2026-05-07 22:13 | 69.93960 | 18.78028 | 5244 ft | 213 kts | 41° |
| 2026-05-07 22:14 | 69.94895 | 18.81306 | 5004 ft | 210 kts | 61° |
| 2026-05-07 22:14 | 69.95421 | 18.85253 | 4862 ft | 208 kts | 79° |
| 2026-05-07 22:14 | 69.95478 | 18.89351 | 4546 ft | 199 kts | 99° |
| 2026-05-07 22:14 | 69.95179 | 18.93262 | 4510 ft | 199 kts | 104° |
| 2026-05-07 22:15 | 69.94863 | 18.97208 | 4510 ft | 200 kts | 104° |
| 2026-05-07 22:15 | 69.94554 | 19.01158 | 4509 ft | 200 kts | 104° |
| 2026-05-07 22:15 | 69.94140 | 19.04948 | 4489 ft | 199 kts | 125° |
| 2026-05-07 22:15 | 69.93105 | 19.07481 | 4515 ft | 197 kts | 161° |
| 2026-05-07 22:16 | 69.91800 | 19.07755 | 4504 ft | 182 kts | 193° |
| 2026-05-07 22:16 | 69.90625 | 19.06927 | 4547 ft | 168 kts | 194° |
| 2026-05-07 22:16 | 69.89526 | 19.06178 | 4507 ft | 156 kts | 194° |
| 2026-05-07 22:16 | 69.88479 | 19.05471 | 4508 ft | 151 kts | 194° |
| 2026-05-07 22:17 | 69.87793 | 19.05008 | 4506 ft | 149 kts | 194° |
| 2026-05-07 22:17 | 69.86803 | 19.04338 | 4508 ft | 147 kts | 194° |
| 2026-05-07 22:17 | 69.85796 | 19.03657 | 4514 ft | 146 kts | 194° |
| 2026-05-07 22:17 | 69.84805 | 19.02986 | 4512 ft | 146 kts | 194° |
| 2026-05-07 22:18 | 69.83819 | 19.02318 | 4220 ft | 146 kts | 194° |
| 2026-05-07 22:18 | 69.81857 | 19.00989 | 3656 ft | 144 kts | 194° |
| 2026-05-07 22:18 | 69.80885 | 19.00331 | 3387 ft | 143 kts | 194° |
| 2026-05-07 22:19 | 69.79918 | 18.99678 | 3116 ft | 143 kts | 194° |
| 2026-05-07 22:19 | 69.78953 | 18.99026 | 2848 ft | 142 kts | 194° |
| 2026-05-07 22:19 | 69.77992 | 18.98378 | 2582 ft | 142 kts | 194° |
| 2026-05-07 22:19 | 69.77032 | 18.97731 | 2312 ft | 141 kts | 193° |
| 2026-05-07 22:20 | 69.76075 | 18.97086 | 2045 ft | 141 kts | 194° |
| 2026-05-07 22:20 | 69.75122 | 18.96446 | 1785 ft | 140 kts | 193° |
| 2026-05-07 22:20 | 69.74170 | 18.95806 | 1498 ft | 140 kts | 193° |
| 2026-05-07 22:20 | 69.73223 | 18.95170 | 1214 ft | 140 kts | 193° |
| 2026-05-07 22:21 | 69.72279 | 18.94537 | 937 ft | 139 kts | 193° |
| 2026-05-07 22:21 | 69.71334 | 18.93903 | 674 ft | 140 kts | 193° |
| 2026-05-07 22:21 | 69.70388 | 18.93270 | 426 ft | 140 kts | 193° |
| 2026-05-07 22:21 | 69.69434 | 18.92631 | 162 ft | 141 kts | 193° |
| 2026-05-07 22:22 | 69.68489 | 18.92011 | 38 ft | 131 kts | 197° |
| 2026-05-07 22:22 | 69.67761 | 18.91508 | 37 ft | 81 kts | 193° |
| 2026-05-07 22:22 | 69.67427 | 18.91285 | 40 ft | 30 kts | 192° |
| 2026-05-07 22:22 | 69.67252 | 18.91192 | 40 ft | 10 kts | 229° |
| 2026-05-07 22:23 | 69.67319 | 18.91205 | 39 ft | 20 kts | 20° |
| 2026-05-07 22:23 | 69.67504 | 18.91337 | 40 ft | 35 kts | 12° |
| 2026-05-07 22:23 | 69.67682 | 18.91436 | 34 ft | 17 kts | 348° |
| 2026-05-07 22:23 | 69.67757 | 18.91174 | 37 ft | 18 kts | 319° |
| 2026-05-07 22:24 | 69.67894 | 18.91209 | 36 ft | 22 kts | 13° |
| 2026-05-07 22:24 | 69.67990 | 18.91225 | 35 ft | 11 kts | 310° |
| 2026-05-07 22:24 | 69.68009 | 18.91019 | 36 ft | 4 kts | 283° |
| 2026-05-07 22:24 | 69.68013 | 18.90971 | 36 ft | 1 kts | 283° |
| 2026-05-07 22:25 | 69.68013 | 18.90970 | 36 ft | 0 kts | 283° |